Overview Statistics Trail Chart Weather Telemetry Raw packets
 

This is the latest recevied weather packets stored in our database for station/object WA6ODQ-13. If no packets are shown the sender has not sent any weather packets the latest 10 day(s).

<< 17 18 19 20 21 22 23 >>
Time Temp. Humidity Pressure Rain* Wind** Luminosity Snow
1788549703 24.44° C 52% 1012.2 hPa 0 mm - 210 W/m² -
1788549400 23.89° C 52% 1012.1 hPa 0 mm - 646 W/m² -
1788549095 22.78° C 56% 1012.2 hPa 0 mm - 253 W/m² -
1788548791 22.78° C 57% 1012.2 hPa 0 mm - 188 W/m² -
1788548487 22.78° C 57% 1012.2 hPa 0 mm - 162 W/m² -
1788548184 24.44° C 53% 1012 hPa 0 mm - 168 W/m² -
1788547906 23.89° C 55% 1012.3 hPa 0 mm - 230 W/m² -
1788547577 22.78° C 57% 1012.3 hPa 0 mm - 189 W/m² -
1788547272 24.44° C 53% 1012.2 hPa 0 mm - 707 W/m² -
1788546968 23.89° C 55% 1012.4 hPa 0 mm - 447 W/m² -
1788546663 23.89° C 56% 1012.1 hPa 0 mm - 655 W/m² -
1788546358 23.33° C 58% 1012.2 hPa 0 mm - 649 W/m² -
1788546052 22.78° C 60% 1012.4 hPa 0 mm - 476 W/m² -
1788545749 23.33° C 58% 1012.1 hPa 0 mm - 215 W/m² -
1788545442 22.78° C 59% 1012.4 hPa 0 mm - 607 W/m² -
1788545137 22.78° C 60% 1012.4 hPa 0 mm - 585 W/m² -
1788544832 21.67° C 64% 1012.3 hPa 0 mm - 599 W/m² -
1788544527 21.67° C 63% 1012.2 hPa 0 mm - 188 W/m² -
1788544225 22.78° C 62% 1012.3 hPa 0 mm - 555 W/m² -
1788543920 22.22° C 62% 1012.6 hPa 0 mm - 557 W/m² -
1788543617 21.67° C 64% 1012.3 hPa 0 mm - 550 W/m² -
1788543317 22.22° C 63% 1012.2 hPa 0 mm - 503 W/m² -
1788543012 21.67° C 64% 1012.1 hPa 0 mm - 480 W/m² -
1788542708 21.67° C 64% 1012.2 hPa 0 mm - 471 W/m² -
1788542407 21.67° C 64% 1012.3 hPa 0 mm - 453 W/m² -

* Rain latest hour (hover to see other rain measurements)
** Current wind speed in m/s (hover to see current wind gust speed)